createdAt,value
2018-12-30T00:00:03.710Z,82.86
2018-12-30T00:01:03.584Z,83.09
2018-12-30T00:02:03.574Z,82.86
2018-12-30T00:03:03.566Z,82.86
2018-12-30T00:04:03.610Z,82.90
2018-12-30T00:05:03.674Z,82.38
2018-12-30T00:06:03.589Z,83.14
2018-12-30T00:07:03.791Z,83.42
2018-12-30T00:08:03.630Z,83.42
2018-12-30T00:09:03.602Z,83.09
2018-12-30T00:10:03.666Z,83.23
2018-12-30T00:11:04.291Z,83.28
2018-12-30T00:12:03.691Z,83.28
2018-12-30T00:13:03.658Z,82.99
2018-12-30T00:14:03.650Z,83.14
2018-12-30T00:15:03.698Z,82.90
2018-12-30T00:16:03.630Z,83.09
2018-12-30T00:17:03.640Z,82.95
2018-12-30T00:18:03.656Z,83.33
2018-12-30T00:19:03.685Z,82.86
2018-12-30T00:20:03.660Z,83.18
2018-12-30T00:21:08.910Z,83.28
2018-12-30T00:22:03.675Z,82.99
2018-12-30T00:23:03.677Z,83.09
2018-12-30T00:24:03.669Z,83.09
2018-12-30T00:25:03.853Z,82.95
2018-12-30T00:26:03.696Z,83.47
2018-12-30T00:27:03.718Z,83.09
2018-12-30T00:28:03.721Z,83.28
2018-12-30T00:29:03.964Z,83.37
2018-12-30T00:30:03.720Z,83.14
2018-12-30T00:31:03.709Z,83.28
2018-12-30T00:32:03.715Z,83.18
2018-12-30T00:33:03.740Z,83.42
2018-12-30T00:34:03.753Z,83.85
2018-12-30T00:35:03.743Z,83.75
2018-12-30T00:36:03.758Z,83.37
2018-12-30T00:37:03.746Z,83.47
2018-12-30T00:38:03.748Z,83.56
2018-12-30T00:39:03.774Z,83.75
2018-12-30T00:40:03.773Z,83.65
2018-12-30T00:41:04.801Z,83.81
2018-12-30T00:42:03.767Z,83.65
2018-12-30T00:43:03.777Z,83.65
2018-12-30T00:44:03.780Z,83.56
2018-12-30T00:45:03.779Z,83.47
2018-12-30T00:46:03.831Z,83.56
2018-12-30T00:47:03.795Z,83.47
2018-12-30T00:48:03.796Z,83.47
2018-12-30T00:49:03.807Z,83.85
2018-12-30T00:50:03.828Z,83.56
2018-12-30T00:51:03.809Z,83.65
2018-12-30T00:52:03.843Z,83.47
2018-12-30T00:53:03.896Z,83.65
2018-12-30T00:54:03.833Z,83.85
2018-12-30T00:55:05.193Z,83.85
2018-12-30T00:56:03.835Z,83.65
2018-12-30T00:57:03.896Z,83.65
2018-12-30T00:58:03.843Z,83.75
2018-12-30T00:59:03.930Z,83.65
2018-12-30T01:00:03.879Z,83.75
2018-12-30T01:01:04.015Z,83.75
2018-12-30T01:02:03.878Z,83.75
2018-12-30T01:03:03.929Z,84.13
2018-12-30T01:04:03.877Z,83.65
2018-12-30T01:05:03.947Z,83.65
2018-12-30T01:06:03.903Z,83.75
2018-12-30T01:07:03.898Z,83.75
2018-12-30T01:08:03.895Z,83.85
2018-12-30T01:09:03.937Z,84.33
2018-12-30T01:10:03.936Z,84.70
2018-12-30T01:11:03.973Z,84.61
2018-12-30T01:12:03.913Z,84.52
2018-12-30T01:13:03.937Z,84.70
2018-12-30T01:14:03.979Z,84.33
2018-12-30T01:15:03.994Z,84.52
2018-12-30T01:16:03.938Z,84.52
2018-12-30T01:17:03.952Z,84.80
2018-12-30T01:18:03.957Z,84.99
2018-12-30T01:19:03.979Z,85.18
2018-12-30T01:20:04.015Z,85.08
2018-12-30T01:21:03.982Z,84.70
2018-12-30T01:22:04.040Z,85.18
2018-12-30T01:23:03.975Z,84.70
2018-12-30T01:24:03.983Z,84.89
2018-12-30T01:25:03.996Z,85.08
2018-12-30T01:26:04.011Z,85.75
2018-12-30T01:27:04.012Z,85.37
2018-12-30T01:28:03.992Z,85.56
2018-12-30T01:29:04.011Z,85.56
2018-12-30T01:30:04.040Z,85.85
2018-12-30T01:31:04.091Z,85.37
2018-12-30T01:32:04.055Z,85.56
2018-12-30T01:33:04.047Z,85.75
2018-12-30T01:34:04.040Z,85.94
2018-12-30T01:35:04.057Z,86.04
2018-12-30T01:36:04.064Z,85.94
2018-12-30T01:37:04.069Z,85.85
2018-12-30T01:38:04.099Z,85.94
2018-12-30T01:39:04.059Z,86.22
2018-12-30T01:40:04.115Z,86.04
2018-12-30T01:41:04.073Z,86.13
2018-12-30T01:42:04.072Z,86.42
2018-12-30T01:43:04.132Z,86.32
2018-12-30T01:44:04.084Z,86.13
2018-12-30T01:45:04.096Z,86.04
2018-12-30T01:46:04.139Z,85.94
2018-12-30T01:47:04.107Z,86.70
2018-12-30T01:48:04.097Z,87.18
2018-12-30T01:49:04.124Z,86.99
2018-12-30T01:50:04.205Z,87.18
2018-12-30T01:51:04.145Z,86.90
2018-12-30T01:52:04.129Z,87.08
2018-12-30T01:53:04.141Z,87.08
2018-12-30T01:54:04.169Z,87.08
2018-12-30T01:55:04.171Z,87.08
2018-12-30T01:56:04.160Z,86.90
2018-12-30T01:57:04.163Z,87.37
2018-12-30T01:58:04.187Z,86.90
2018-12-30T01:59:04.173Z,87.08
2018-12-30T02:00:04.181Z,87.08
2018-12-30T02:01:04.237Z,87.18
2018-12-30T02:02:04.189Z,87.75
2018-12-30T02:03:04.188Z,87.37
2018-12-30T02:04:04.184Z,87.18
2018-12-30T02:05:04.232Z,87.18
2018-12-30T02:06:04.200Z,87.18
2018-12-30T02:07:04.237Z,87.18
2018-12-30T02:08:04.249Z,87.08
2018-12-30T02:09:04.211Z,87.18
2018-12-30T02:10:04.209Z,87.65
2018-12-30T02:11:04.263Z,87.18
2018-12-30T02:12:04.232Z,87.18
2018-12-30T02:13:04.235Z,87.08
2018-12-30T02:14:04.253Z,87.13
2018-12-30T02:15:04.333Z,86.94
2018-12-30T02:16:04.259Z,87.08
2018-12-30T02:17:04.265Z,86.75
2018-12-30T02:18:04.269Z,87.03
2018-12-30T02:19:04.252Z,87.23
2018-12-30T02:20:04.279Z,86.94
2018-12-30T02:21:04.299Z,86.46
2018-12-30T02:22:04.321Z,86.65
2018-12-30T02:23:04.321Z,86.55
2018-12-30T02:24:04.278Z,86.75
2018-12-30T02:25:04.297Z,86.55
2018-12-30T02:26:04.333Z,87.03
2018-12-30T02:27:04.405Z,87.13
2018-12-30T02:28:04.333Z,87.23
2018-12-30T02:29:04.340Z,87.13
2018-12-30T02:30:04.314Z,87.41
2018-12-30T02:31:04.352Z,87.32
2018-12-30T02:32:04.324Z,87.23
2018-12-30T02:33:04.381Z,87.13
2018-12-30T02:34:04.383Z,87.03
2018-12-30T02:35:04.342Z,86.94
2018-12-30T02:36:04.341Z,87.23
2018-12-30T02:37:04.356Z,87.41
2018-12-30T02:38:04.366Z,87.03
2018-12-30T02:39:04.414Z,87.23
2018-12-30T02:40:04.388Z,86.65
2018-12-30T02:41:04.417Z,86.75
2018-12-30T02:42:04.384Z,87.23
2018-12-30T02:43:04.408Z,87.41
2018-12-30T02:44:07.344Z,87.32
2018-12-30T02:45:04.394Z,87.51
2018-12-30T02:46:04.461Z,87.70
2018-12-30T02:47:04.458Z,87.13
2018-12-30T02:48:04.421Z,87.32
2018-12-30T02:49:04.442Z,88.08
2018-12-30T02:50:04.417Z,87.98
2018-12-30T02:51:04.443Z,87.89
2018-12-30T02:52:04.461Z,87.23
2018-12-30T02:53:04.445Z,87.03
2018-12-30T02:54:04.458Z,87.32
2018-12-30T02:55:04.469Z,87.41
2018-12-30T02:56:04.450Z,87.23
2018-12-30T02:57:04.499Z,87.32
2018-12-30T02:58:04.469Z,87.51
2018-12-30T02:59:04.468Z,87.98
2018-12-30T03:00:04.468Z,87.32
2018-12-30T03:01:04.481Z,87.89
2018-12-30T03:02:04.493Z,87.32
2018-12-30T03:03:04.508Z,87.23
2018-12-30T03:04:04.501Z,87.51
2018-12-30T03:05:04.530Z,87.32
2018-12-30T03:06:04.500Z,87.32
2018-12-30T03:07:04.509Z,87.51
2018-12-30T03:08:04.574Z,87.41
2018-12-30T03:09:04.528Z,87.13
2018-12-30T03:10:04.519Z,87.13
2018-12-30T03:11:04.525Z,87.32
2018-12-30T03:12:04.544Z,87.23
2018-12-30T03:13:04.540Z,87.51
2018-12-30T03:14:04.615Z,87.51
2018-12-30T03:15:04.546Z,86.94
2018-12-30T03:16:04.560Z,87.89
2018-12-30T03:17:04.562Z,87.89
2018-12-30T03:18:04.563Z,87.89
2018-12-30T03:19:04.632Z,87.70
2018-12-30T03:20:04.584Z,87.98
2018-12-30T03:21:04.586Z,87.89
2018-12-30T03:22:04.592Z,88.08
2018-12-30T03:23:04.604Z,87.79
2018-12-30T03:24:04.632Z,87.70
2018-12-30T03:25:04.630Z,87.70
2018-12-30T03:26:04.659Z,88.18
2018-12-30T03:27:04.609Z,88.65
2018-12-30T03:28:04.640Z,88.65
2018-12-30T03:29:04.629Z,88.46
2018-12-30T03:30:04.701Z,88.27
2018-12-30T03:31:04.634Z,88.37
2018-12-30T03:32:04.637Z,88.75
2018-12-30T03:33:04.674Z,88.65
2018-12-30T03:34:04.704Z,88.08
2018-12-30T03:35:04.663Z,88.18
2018-12-30T03:36:04.692Z,88.65
2018-12-30T03:37:04.716Z,88.56
2018-12-30T03:38:04.680Z,88.65
2018-12-30T03:39:04.689Z,88.65
2018-12-30T03:40:04.735Z,89.22
2018-12-30T03:41:04.714Z,89.13
2018-12-30T03:42:04.751Z,88.93
2018-12-30T03:43:04.709Z,88.75
2018-12-30T03:44:04.699Z,88.93
2018-12-30T03:45:04.710Z,88.65
2018-12-30T03:46:04.724Z,88.84
2018-12-30T03:47:04.723Z,89.32
2018-12-30T03:48:04.745Z,89.13
2018-12-30T03:49:04.725Z,89.41
2018-12-30T03:50:04.742Z,89.70
2018-12-30T03:51:04.763Z,89.03
2018-12-30T03:52:08.531Z,89.03
2018-12-30T03:53:04.853Z,89.13
2018-12-30T03:54:04.755Z,89.61
2018-12-30T03:55:04.761Z,89.41
2018-12-30T03:56:04.773Z,89.51
2018-12-30T03:57:04.783Z,89.22
2018-12-30T03:58:04.775Z,88.65
2018-12-30T03:59:04.817Z,89.51
2018-12-30T04:00:04.810Z,89.22
2018-12-30T04:01:04.799Z,89.03
2018-12-30T04:02:04.806Z,88.93
2018-12-30T04:03:04.820Z,89.22
2018-12-30T04:04:04.822Z,89.70
2018-12-30T04:05:04.855Z,89.03
2018-12-30T04:06:04.821Z,89.03
2018-12-30T04:07:04.821Z,89.03
2018-12-30T04:08:04.832Z,89.22
2018-12-30T04:09:04.897Z,88.75
2018-12-30T04:10:04.844Z,89.79
2018-12-30T04:11:04.879Z,89.13
2018-12-30T04:12:04.856Z,89.41
2018-12-30T04:13:04.866Z,89.22
2018-12-30T04:14:04.862Z,89.32
2018-12-30T04:15:04.928Z,89.13
2018-12-30T04:16:04.907Z,89.32
2018-12-30T04:17:04.883Z,89.41
2018-12-30T04:18:04.906Z,89.13
2018-12-30T04:19:04.918Z,89.41
2018-12-30T04:20:04.910Z,89.22
2018-12-30T04:21:04.934Z,88.84
2018-12-30T04:22:04.902Z,89.51
2018-12-30T04:23:04.941Z,89.03
2018-12-30T04:24:04.916Z,89.03
2018-12-30T04:25:04.921Z,89.79
2018-12-30T04:26:04.958Z,89.51
2018-12-30T04:27:04.934Z,89.70
2018-12-30T04:28:04.950Z,89.61
2018-12-30T04:29:04.937Z,89.89
2018-12-30T04:30:04.961Z,89.89
2018-12-30T04:31:05.008Z,89.89
2018-12-30T04:32:04.964Z,89.61
2018-12-30T04:33:04.969Z,89.70
2018-12-30T04:34:04.979Z,89.89
2018-12-30T04:35:04.990Z,90.75
2018-12-30T04:36:04.990Z,90.75
2018-12-30T04:37:05.023Z,90.94
2018-12-30T04:38:04.991Z,90.36
2018-12-30T04:39:05.014Z,90.75
2018-12-30T04:40:05.010Z,90.36
2018-12-30T04:41:05.032Z,90.27
2018-12-30T04:42:05.037Z,90.75
2018-12-30T04:43:05.015Z,90.46
2018-12-30T04:44:05.032Z,90.84
2018-12-30T04:45:05.051Z,90.75
2018-12-30T04:46:05.042Z,90.75
2018-12-30T04:47:05.051Z,90.56
2018-12-30T04:48:05.107Z,90.27
2018-12-30T04:49:05.145Z,90.56
2018-12-30T04:50:05.061Z,90.94
2018-12-30T04:51:05.067Z,90.56
2018-12-30T04:52:05.061Z,90.36
2018-12-30T04:53:05.091Z,90.75
2018-12-30T04:54:05.118Z,90.75
2018-12-30T04:55:05.078Z,90.65
2018-12-30T04:56:05.082Z,90.46
2018-12-30T04:57:05.143Z,90.56
2018-12-30T04:58:05.103Z,91.03
2018-12-30T04:59:05.110Z,90.84
2018-12-30T05:00:05.109Z,91.13
2018-12-30T05:01:05.114Z,90.75
2018-12-30T05:02:05.143Z,90.84
2018-12-30T05:03:05.167Z,90.65
2018-12-30T05:04:05.124Z,90.84
2018-12-30T05:05:05.144Z,91.03
2018-12-30T05:06:05.137Z,90.94
2018-12-30T05:07:05.152Z,90.94
2018-12-30T05:08:05.149Z,90.94
2018-12-30T05:09:05.194Z,91.03
2018-12-30T05:10:05.155Z,90.36
2018-12-30T05:11:05.173Z,90.36
2018-12-30T05:12:05.198Z,90.94
2018-12-30T05:13:05.200Z,91.51
2018-12-30T05:14:05.201Z,91.22
2018-12-30T05:15:05.214Z,90.94
2018-12-30T05:16:05.216Z,91.51
2018-12-30T05:17:05.190Z,91.41
2018-12-30T05:18:05.223Z,91.31
2018-12-30T05:19:05.211Z,91.51
2018-12-30T05:20:05.226Z,91.60
2018-12-30T05:21:05.260Z,91.41
2018-12-30T05:22:05.230Z,91.31
2018-12-30T05:23:05.233Z,91.13
2018-12-30T05:24:05.239Z,91.31
2018-12-30T05:25:05.238Z,91.41
2018-12-30T05:26:05.250Z,91.41
2018-12-30T05:27:05.366Z,91.79
2018-12-30T05:28:05.251Z,91.60
2018-12-30T05:29:05.255Z,91.89
2018-12-30T05:30:05.298Z,91.51
2018-12-30T05:31:05.268Z,92.27
2018-12-30T05:32:05.281Z,91.89
2018-12-30T05:33:05.329Z,91.89
2018-12-30T05:34:05.308Z,91.41
2018-12-30T05:35:05.283Z,91.31
2018-12-30T05:36:05.306Z,90.99
2018-12-30T05:37:05.313Z,91.37
2018-12-30T05:38:05.337Z,91.46
2018-12-30T05:39:05.325Z,91.17
2018-12-30T05:40:05.322Z,91.56
2018-12-30T05:41:07.207Z,91.27
2018-12-30T05:42:05.333Z,90.70
2018-12-30T05:43:05.336Z,90.51
2018-12-30T05:44:05.405Z,90.42
2018-12-30T05:45:05.342Z,90.22
2018-12-30T05:46:05.370Z,90.51
2018-12-30T05:47:05.355Z,89.56
2018-12-30T05:48:05.363Z,89.94
2018-12-30T05:49:05.357Z,90.22
2018-12-30T05:50:05.424Z,89.27
2018-12-30T05:51:05.370Z,89.56
2018-12-30T05:52:05.464Z,89.47
2018-12-30T05:53:05.434Z,89.84
2018-12-30T05:54:05.384Z,89.84
2018-12-30T05:55:05.423Z,89.84
2018-12-30T05:56:05.411Z,88.99
2018-12-30T05:57:05.400Z,88.99
2018-12-30T05:58:05.419Z,89.14
2018-12-30T05:59:05.402Z,89.51
2018-12-30T06:00:05.406Z,89.70
2018-12-30T06:01:05.713Z,89.75
2018-12-30T06:02:05.441Z,89.94
2018-12-30T06:03:05.439Z,90.03
2018-12-30T06:04:05.451Z,89.75
2018-12-30T06:05:05.447Z,90.61
2018-12-30T06:06:05.504Z,90.22
2018-12-30T06:07:05.460Z,90.37
2018-12-30T06:08:05.616Z,91.27
2018-12-30T06:09:05.557Z,91.03
2018-12-30T06:10:05.482Z,91.42
2018-12-30T06:11:05.471Z,91.46
2018-12-30T06:12:05.478Z,91.32
2018-12-30T06:13:05.485Z,91.13
2018-12-30T06:14:05.480Z,91.22
2018-12-30T06:15:05.548Z,91.22
2018-12-30T06:16:05.505Z,90.84
2018-12-30T06:17:05.518Z,90.84
2018-12-30T06:18:05.495Z,90.47
2018-12-30T06:19:05.537Z,90.37
2018-12-30T06:20:05.557Z,90.47
2018-12-30T06:21:05.525Z,91.03
2018-12-30T06:22:05.547Z,91.42
2018-12-30T06:23:05.541Z,91.80
2018-12-30T06:24:05.527Z,91.61
2018-12-30T06:25:05.617Z,91.80
2018-12-30T06:26:05.539Z,91.99
2018-12-30T06:27:05.577Z,91.70
2018-12-30T06:28:05.557Z,91.80
2018-12-30T06:29:05.562Z,91.51
2018-12-30T06:30:05.601Z,91.22
2018-12-30T06:31:05.605Z,91.61
2018-12-30T06:32:05.566Z,91.42
2018-12-30T06:33:05.590Z,91.89
2018-12-30T06:34:05.603Z,90.75
2018-12-30T06:35:05.605Z,90.80
2018-12-30T06:36:05.616Z,91.13
2018-12-30T06:37:05.616Z,90.28
2018-12-30T06:38:05.651Z,90.75
2018-12-30T06:39:05.607Z,89.70
2018-12-30T06:40:11.316Z,90.18
2018-12-30T06:41:05.706Z,90.28
2018-12-30T06:42:05.624Z,90.66
2018-12-30T06:43:05.635Z,90.47
2018-12-30T06:44:05.616Z,89.89
2018-12-30T06:45:05.623Z,90.75
2018-12-30T06:46:05.649Z,90.47
2018-12-30T06:47:05.720Z,89.89
2018-12-30T06:48:05.674Z,89.80
2018-12-30T06:49:05.676Z,89.99
2018-12-30T06:50:05.659Z,89.99
2018-12-30T06:51:05.661Z,89.51
2018-12-30T06:52:05.682Z,89.42
2018-12-30T06:53:05.692Z,89.99
2018-12-30T06:54:05.699Z,89.04
2018-12-30T06:55:05.684Z,89.23
2018-12-30T06:56:05.688Z,89.04
2018-12-30T06:57:05.708Z,88.90
2018-12-30T06:58:05.726Z,89.09
2018-12-30T06:59:05.694Z,89.37
2018-12-30T07:00:05.706Z,89.37
2018-12-30T07:01:05.722Z,89.56
2018-12-30T07:02:05.764Z,89.56
2018-12-30T07:03:05.706Z,89.18
2018-12-30T07:04:05.769Z,89.18
2018-12-30T07:05:05.719Z,89.00
2018-12-30T07:06:05.735Z,89.28
2018-12-30T07:07:05.743Z,89.66
2018-12-30T07:08:05.742Z,89.75
2018-12-30T07:09:05.823Z,89.18
2018-12-30T07:10:05.777Z,89.09
2018-12-30T07:11:05.775Z,89.66
2018-12-30T07:12:05.784Z,89.00
2018-12-30T07:13:05.799Z,89.47
2018-12-30T07:14:05.805Z,88.61
2018-12-30T07:15:05.789Z,89.28
2018-12-30T07:16:05.845Z,89.09
2018-12-30T07:17:05.821Z,88.13
2018-12-30T07:18:05.831Z,88.61
2018-12-30T07:19:05.816Z,88.52
2018-12-30T07:20:05.882Z,87.95
2018-12-30T07:21:05.895Z,87.85
2018-12-30T07:22:05.790Z,87.57
2018-12-30T07:23:06.255Z,87.76
2018-12-30T07:24:05.854Z,87.19
2018-12-30T07:25:05.821Z,86.99
2018-12-30T07:26:05.839Z,86.80
2018-12-30T07:27:05.913Z,86.43
2018-12-30T07:28:05.834Z,86.14
2018-12-30T07:29:05.845Z,86.24
2018-12-30T07:30:05.895Z,86.52
2018-12-30T07:31:05.855Z,85.19
2018-12-30T07:32:05.848Z,85.28
2018-12-30T07:33:05.845Z,84.72
2018-12-30T07:34:05.872Z,84.62
2018-12-30T07:35:05.939Z,84.33
2018-12-30T07:36:05.879Z,84.52
2018-12-30T07:37:05.879Z,83.58
2018-12-30T07:38:05.873Z,82.91
2018-12-30T07:39:05.966Z,82.91
2018-12-30T07:40:05.914Z,83.86
2018-12-30T07:41:05.937Z,83.39
2018-12-30T07:42:05.891Z,82.91
2018-12-30T07:43:05.965Z,83.19
2018-12-30T07:44:05.922Z,82.62
2018-12-30T07:45:05.902Z,83.10
2018-12-30T07:46:05.932Z,82.34
2018-12-30T07:47:05.920Z,81.96
2018-12-30T07:48:05.970Z,81.96
2018-12-30T07:49:05.969Z,81.20
2018-12-30T07:50:05.939Z,81.86
2018-12-30T07:51:05.952Z,81.20
2018-12-30T07:52:05.957Z,81.29
2018-12-30T07:53:13.474Z,80.87
2018-12-30T07:54:05.967Z,80.49
2018-12-30T07:55:05.978Z,80.87
2018-12-30T07:56:05.957Z,80.49
2018-12-30T07:57:05.953Z,80.02
2018-12-30T07:58:05.997Z,80.11
2018-12-30T07:59:05.963Z,80.11
2018-12-30T08:00:06.129Z,79.83
2018-12-30T08:01:06.136Z,79.35
2018-12-30T08:02:07.216Z,79.16
2018-12-30T08:03:06.189Z,79.16
2018-12-30T08:04:06.143Z,79.73
2018-12-30T08:05:06.021Z,79.35
2018-12-30T08:06:06.083Z,79.25
2018-12-30T08:07:06.224Z,79.44
2018-12-30T08:08:06.112Z,79.25
2018-12-30T08:09:06.093Z,79.63
2018-12-30T08:10:06.092Z,79.73
2018-12-30T08:11:06.198Z,79.16
2018-12-30T08:12:06.153Z,79.63
2018-12-30T08:13:06.470Z,79.92
2018-12-30T08:14:06.050Z,79.73
2018-12-30T08:15:06.236Z,79.92
2018-12-30T08:16:06.064Z,79.92
2018-12-30T08:17:06.160Z,80.21
2018-12-30T08:18:06.146Z,80.11
2018-12-30T08:19:06.303Z,79.63
2018-12-30T08:20:06.242Z,79.63
2018-12-30T08:21:06.082Z,79.58
2018-12-30T08:22:06.056Z,80.21
2018-12-30T08:23:06.225Z,80.24
2018-12-30T08:24:06.169Z,80.34
2018-12-30T08:25:06.248Z,80.15
2018-12-30T08:26:06.125Z,80.44
2018-12-30T08:27:06.082Z,79.68
2018-12-30T08:28:06.105Z,79.68
2018-12-30T08:29:06.133Z,79.68
2018-12-30T08:30:06.096Z,79.49
2018-12-30T08:31:06.111Z,79.30
2018-12-30T08:32:06.118Z,78.63
2018-12-30T08:33:06.103Z,79.86
2018-12-30T08:34:06.132Z,79.86
2018-12-30T08:35:06.141Z,79.49
2018-12-30T08:36:06.125Z,79.30
2018-12-30T08:37:06.133Z,79.30
2018-12-30T08:38:06.122Z,79.39
2018-12-30T08:39:06.140Z,79.49
2018-12-30T08:40:06.228Z,79.68
2018-12-30T08:41:06.154Z,78.53
2018-12-30T08:42:06.148Z,78.53
2018-12-30T08:43:06.164Z,78.63
2018-12-30T08:44:06.178Z,78.91
2018-12-30T08:45:06.152Z,78.72
2018-12-30T08:46:06.218Z,78.34
2018-12-30T08:47:06.224Z,78.06
2018-12-30T08:48:06.174Z,78.44
2018-12-30T08:49:06.179Z,78.63
2018-12-30T08:50:06.199Z,78.34
2018-12-30T08:51:06.239Z,77.49
2018-12-30T08:52:06.183Z,77.49
2018-12-30T08:53:06.190Z,78.06
2018-12-30T08:54:06.216Z,77.97
2018-12-30T08:55:06.198Z,78.34
2018-12-30T08:56:06.212Z,77.77
2018-12-30T08:57:06.238Z,77.49
2018-12-30T08:58:06.241Z,77.58
2018-12-30T08:59:06.258Z,77.68
2018-12-30T09:00:06.209Z,77.58
2018-12-30T09:01:06.226Z,77.20
2018-12-30T09:02:06.291Z,77.68
2018-12-30T09:03:06.238Z,78.16
2018-12-30T09:04:06.239Z,78.25
2018-12-30T09:05:06.270Z,77.30
2018-12-30T09:06:06.240Z,77.77
2018-12-30T09:07:06.245Z,77.58
2018-12-30T09:08:06.266Z,77.58
2018-12-30T09:09:06.269Z,77.68
2018-12-30T09:10:06.255Z,77.77
2018-12-30T09:11:06.325Z,77.20
2018-12-30T09:12:06.276Z,77.11
2018-12-30T09:13:06.304Z,77.11
2018-12-30T09:14:06.331Z,76.82
2018-12-30T09:15:06.282Z,77.01
2018-12-30T09:16:06.299Z,76.16
2018-12-30T09:17:06.323Z,76.54
2018-12-30T09:18:06.323Z,76.25
2018-12-30T09:19:06.306Z,76.25
2018-12-30T09:20:06.342Z,76.73
2018-12-30T09:21:06.330Z,76.63
2018-12-30T09:22:06.354Z,76.92
2018-12-30T09:23:06.340Z,76.73
2018-12-30T09:24:06.388Z,76.82
2018-12-30T09:25:06.338Z,76.25
2018-12-30T09:26:06.345Z,76.06
2018-12-30T09:27:06.359Z,75.87
2018-12-30T09:28:06.389Z,76.25
2018-12-30T09:29:06.358Z,76.06
2018-12-30T09:30:06.600Z,76.44
2018-12-30T09:31:06.360Z,75.49
2018-12-30T09:32:06.363Z,75.30
2018-12-30T09:33:06.364Z,75.21
2018-12-30T09:34:06.628Z,75.21
2018-12-30T09:35:11.211Z,75.30
2018-12-30T09:36:06.493Z,75.40
2018-12-30T09:37:08.033Z,75.49
2018-12-30T09:38:07.217Z,75.21
2018-12-30T09:39:06.402Z,75.40
2018-12-30T09:40:09.217Z,75.40
2018-12-30T09:41:06.418Z,75.21
2018-12-30T09:42:06.399Z,75.30
2018-12-30T09:43:06.409Z,75.11
2018-12-30T09:44:06.429Z,75.40
2018-12-30T09:45:06.417Z,75.34
2018-12-30T09:46:06.428Z,75.81
2018-12-30T09:47:06.424Z,75.62
2018-12-30T09:48:06.434Z,75.30
2018-12-30T09:49:06.487Z,75.30
2018-12-30T09:50:06.435Z,75.43
2018-12-30T09:51:06.442Z,75.43
2018-12-30T09:52:06.471Z,74.87
2018-12-30T09:53:06.464Z,74.01
2018-12-30T09:54:06.485Z,74.73
2018-12-30T09:55:06.526Z,74.44
2018-12-30T09:56:06.468Z,74.44
2018-12-30T09:57:06.524Z,75.11
2018-12-30T09:58:06.505Z,74.96
2018-12-30T09:59:06.522Z,74.77
2018-12-30T10:00:06.558Z,73.88
2018-12-30T10:01:06.560Z,74.54
2018-12-30T10:02:06.543Z,74.29
2018-12-30T10:03:06.521Z,74.39
2018-12-30T10:04:07.537Z,74.01
2018-12-30T10:05:06.544Z,74.07
2018-12-30T10:06:06.537Z,73.97
2018-12-30T10:07:06.538Z,74.26
2018-12-30T10:08:06.594Z,74.20
2018-12-30T10:09:06.551Z,74.39
2018-12-30T10:10:06.534Z,73.78
2018-12-30T10:11:06.736Z,73.63
2018-12-30T10:12:06.540Z,73.72
2018-12-30T10:13:06.553Z,74.29
2018-12-30T10:14:06.586Z,74.29
2018-12-30T10:15:10.050Z,73.25
2018-12-30T10:16:06.571Z,73.44
2018-12-30T10:17:06.561Z,73.06
2018-12-30T10:18:06.645Z,73.63
2018-12-30T10:19:06.601Z,73.44
2018-12-30T10:20:07.463Z,73.15
2018-12-30T10:21:06.636Z,72.77
2018-12-30T10:22:06.627Z,72.86
2018-12-30T10:23:06.593Z,72.49
2018-12-30T10:24:06.808Z,72.77
2018-12-30T10:25:06.612Z,72.67
2018-12-30T10:26:06.836Z,72.67
2018-12-30T10:27:06.619Z,72.67
2018-12-30T10:28:08.244Z,72.86
2018-12-30T10:29:06.661Z,72.49
2018-12-30T10:30:06.721Z,72.58
2018-12-30T10:31:06.625Z,72.77
2018-12-30T10:32:06.815Z,71.91
2018-12-30T10:33:06.689Z,72.01
2018-12-30T10:34:06.731Z,71.91
2018-12-30T10:35:06.675Z,71.91
2018-12-30T10:36:06.886Z,71.63
2018-12-30T10:37:06.806Z,72.30
2018-12-30T10:38:06.660Z,71.91
2018-12-30T10:39:06.691Z,72.01
2018-12-30T10:40:06.702Z,72.39
2018-12-30T10:41:06.693Z,71.91
2018-12-30T10:42:07.473Z,72.11
2018-12-30T10:43:06.717Z,72.11
2018-12-30T10:44:06.732Z,72.20
2018-12-30T10:45:07.283Z,71.72
2018-12-30T10:46:06.767Z,71.82
2018-12-30T10:47:06.709Z,70.97
2018-12-30T10:48:06.716Z,71.72
2018-12-30T10:49:06.726Z,71.06
2018-12-30T10:50:06.792Z,71.25
2018-12-30T10:51:06.727Z,71.82
2018-12-30T10:52:06.790Z,71.82
2018-12-30T10:53:06.738Z,71.53
2018-12-30T10:54:06.797Z,71.53
2018-12-30T10:55:06.850Z,71.53
2018-12-30T10:56:06.776Z,71.25
2018-12-30T10:57:06.806Z,71.25
2018-12-30T10:58:06.762Z,71.63
2018-12-30T10:59:06.818Z,71.09
2018-12-30T11:00:06.845Z,70.87
2018-12-30T11:01:06.782Z,71.57
2018-12-30T11:02:06.866Z,71.06
2018-12-30T11:03:08.041Z,71.63
2018-12-30T11:04:06.804Z,71.53
2018-12-30T11:05:06.807Z,71.15
2018-12-30T11:06:06.819Z,71.63
2018-12-30T11:07:06.861Z,71.53
2018-12-30T11:08:06.840Z,71.09
2018-12-30T11:09:06.822Z,71.72
2018-12-30T11:10:06.828Z,72.05
2018-12-30T11:11:06.877Z,71.57
2018-12-30T11:12:06.967Z,71.28
2018-12-30T11:13:06.929Z,71.09
2018-12-30T11:14:06.891Z,71.95
2018-12-30T11:15:06.849Z,71.67
2018-12-30T11:16:06.918Z,71.47
2018-12-30T11:17:06.886Z,71.67
2018-12-30T11:18:06.943Z,72.05
2018-12-30T11:19:06.876Z,72.05
2018-12-30T11:20:06.918Z,71.76
2018-12-30T11:21:06.921Z,71.09
2018-12-30T11:22:06.910Z,71.19
2018-12-30T11:23:06.913Z,71.00
2018-12-30T11:24:08.676Z,71.09
2018-12-30T11:25:06.922Z,71.28
2018-12-30T11:26:06.900Z,71.28
2018-12-30T11:27:06.936Z,71.19
2018-12-30T11:28:06.929Z,71.00
2018-12-30T11:29:06.944Z,71.57
2018-12-30T11:30:06.927Z,71.38
2018-12-30T11:31:06.988Z,71.47
2018-12-30T11:32:06.940Z,71.19
2018-12-30T11:33:06.946Z,71.47
2018-12-30T11:34:06.990Z,71.67
2018-12-30T11:35:06.981Z,71.28
2018-12-30T11:36:06.983Z,71.28
2018-12-30T11:37:06.959Z,71.38
2018-12-30T11:38:06.989Z,71.09
2018-12-30T11:39:06.973Z,71.09
2018-12-30T11:40:07.135Z,71.09
2018-12-30T11:41:07.010Z,71.00
2018-12-30T11:42:06.999Z,71.47
2018-12-30T11:43:06.994Z,71.19
2018-12-30T11:44:07.066Z,72.05
2018-12-30T11:45:07.056Z,71.67
2018-12-30T11:46:07.022Z,71.67
2018-12-30T11:47:07.165Z,71.67
2018-12-30T11:48:07.029Z,71.28
2018-12-30T11:49:07.033Z,71.76
2018-12-30T11:50:07.093Z,71.67
2018-12-30T11:51:07.040Z,71.19
2018-12-30T11:52:07.047Z,70.81
2018-12-30T11:53:07.043Z,71.38
2018-12-30T11:54:07.067Z,71.32
2018-12-30T11:55:07.084Z,70.72
2018-12-30T11:56:07.075Z,71.09
2018-12-30T11:57:07.083Z,71.19
2018-12-30T11:58:07.068Z,71.09
2018-12-30T11:59:07.100Z,70.90
2018-12-30T12:00:07.117Z,71.28
2018-12-30T12:01:07.146Z,71.28
2018-12-30T12:02:07.088Z,71.89
2018-12-30T12:03:07.090Z,71.19
2018-12-30T12:04:07.100Z,71.03
2018-12-30T12:05:07.177Z,70.94
2018-12-30T12:06:07.148Z,71.76
2018-12-30T12:07:07.151Z,71.57
2018-12-30T12:08:07.192Z,71.28
2018-12-30T12:09:07.139Z,71.09
2018-12-30T12:10:07.261Z,71.57
2018-12-30T12:11:07.211Z,71.28
2018-12-30T12:12:07.186Z,71.19
2018-12-30T12:13:07.389Z,71.28
2018-12-30T12:14:07.164Z,71.09
2018-12-30T12:15:07.217Z,70.90
2018-12-30T12:16:07.170Z,71.28
2018-12-30T12:17:07.210Z,71.28
2018-12-30T12:18:07.190Z,71.67
2018-12-30T12:19:07.213Z,72.05
2018-12-30T12:20:07.193Z,71.76
2018-12-30T12:21:07.333Z,71.19
2018-12-30T12:22:07.266Z,71.19
2018-12-30T12:23:07.241Z,71.67
2018-12-30T12:24:07.259Z,71.28
2018-12-30T12:25:07.263Z,71.76
2018-12-30T12:26:07.254Z,71.47
2018-12-30T12:27:07.243Z,71.13
2018-12-30T12:28:07.275Z,71.09
2018-12-30T12:29:07.233Z,71.19
2018-12-30T12:30:07.264Z,71.57
2018-12-30T12:31:07.281Z,72.24
2018-12-30T12:32:07.281Z,71.76
2018-12-30T12:33:07.263Z,72.14
2018-12-30T12:34:07.333Z,71.67
2018-12-30T12:35:07.278Z,72.24
2018-12-30T12:36:07.277Z,72.33
2018-12-30T12:37:07.707Z,72.14
2018-12-30T12:38:07.352Z,72.62
2018-12-30T12:39:07.296Z,72.42
2018-12-30T12:40:07.336Z,72.81
2018-12-30T12:41:07.320Z,72.33
2018-12-30T12:42:07.438Z,72.62
2018-12-30T12:43:07.423Z,72.42
2018-12-30T12:44:07.343Z,72.52
2018-12-30T12:45:07.415Z,72.71
2018-12-30T12:46:07.357Z,72.62
2018-12-30T12:47:07.561Z,72.75
2018-12-30T12:48:07.379Z,72.52
2018-12-30T12:49:07.346Z,72.85
2018-12-30T12:50:07.367Z,72.65
2018-12-30T12:51:07.374Z,71.98
2018-12-30T12:52:07.423Z,72.27